sensor_id;sensor_type;location;lat;lon;timestamp;pressure;altitude;pressure_sealevel;temperature;humidity
11856;BME280;5987;53.140;8.904;2023-04-20T00:00:32;102322.38;;;6.56;100.00
11856;BME280;5987;53.140;8.904;2023-04-20T00:03:36;102314.44;;;6.35;100.00
11856;BME280;5987;53.140;8.904;2023-04-20T00:06:41;102306.59;;;6.35;100.00
11856;BME280;5987;53.140;8.904;2023-04-20T00:09:46;102309.19;;;6.22;100.00
11856;BME280;5987;53.140;8.904;2023-04-20T00:12:49;102321.03;;;5.79;100.00
11856;BME280;5987;53.140;8.904;2023-04-20T00:15:53;102327.03;;;5.67;100.00
11856;BME280;5987;53.140;8.904;2023-04-20T00:18:58;102319.22;;;5.67;100.00
11856;BME280;5987;53.140;8.904;2023-04-20T00:22:04;102320.97;;;5.67;100.00
11856;BME280;5987;53.140;8.904;2023-04-20T00:25:08;102324.31;;;5.52;100.00
11856;BME280;5987;53.140;8.904;2023-04-20T00:28:12;102328.50;;;5.35;100.00
11856;BME280;5987;53.140;8.904;2023-04-20T00:31:16;102326.63;;;5.21;100.00
11856;BME280;5987;53.140;8.904;2023-04-20T00:34:20;102323.09;;;5.16;100.00
11856;BME280;5987;53.140;8.904;2023-04-20T00:37:25;102317.03;;;5.17;100.00
11856;BME280;5987;53.140;8.904;2023-04-20T00:40:29;102308.25;;;5.06;100.00
11856;BME280;5987;53.140;8.904;2023-04-20T00:43:33;102310.81;;;5.00;100.00
11856;BME280;5987;53.140;8.904;2023-04-20T00:46:37;102302.13;;;5.01;100.00
11856;BME280;5987;53.140;8.904;2023-04-20T00:49:40;102305.63;;;5.03;100.00
11856;BME280;5987;53.140;8.904;2023-04-20T00:52:46;102301.31;;;5.05;100.00
11856;BME280;5987;53.140;8.904;2023-04-20T00:55:50;102290.94;;;5.09;100.00
11856;BME280;5987;53.140;8.904;2023-04-20T00:58:54;102287.47;;;5.10;100.00
11856;BME280;5987;53.140;8.904;2023-04-20T01:01:58;102277.97;;;5.14;100.00
11856;BME280;5987;53.140;8.904;2023-04-20T01:05:02;102264.16;;;5.21;100.00
11856;BME280;5987;53.140;8.904;2023-04-20T01:08:07;102252.91;;;5.27;100.00
11856;BME280;5987;53.140;8.904;2023-04-20T01:11:10;102247.72;;;5.30;100.00
11856;BME280;5987;53.140;8.904;2023-04-20T01:14:14;102239.06;;;5.31;100.00
11856;BME280;5987;53.140;8.904;2023-04-20T01:17:17;102234.78;;;5.38;100.00
11856;BME280;5987;53.140;8.904;2023-04-20T01:20:21;102244.28;;;5.36;100.00
11856;BME280;5987;53.140;8.904;2023-04-20T01:23:27;102242.59;;;5.41;100.00
11856;BME280;5987;53.140;8.904;2023-04-20T01:26:30;102231.34;;;5.45;100.00
11856;BME280;5987;53.140;8.904;2023-04-20T01:29:34;102235.72;;;5.50;100.00
11856;BME280;5987;53.140;8.904;2023-04-20T01:32:38;102224.47;;;5.53;100.00
11856;BME280;5987;53.140;8.904;2023-04-20T01:35:42;102225.31;;;5.57;100.00
11856;BME280;5987;53.140;8.904;2023-04-20T01:38:48;102226.22;;;5.59;100.00
11856;BME280;5987;53.140;8.904;2023-04-20T01:41:52;102216.66;;;5.61;100.00
11856;BME280;5987;53.140;8.904;2023-04-20T01:44:55;102209.75;;;5.63;100.00
11856;BME280;5987;53.140;8.904;2023-04-20T01:48:00;102201.09;;;5.64;100.00
11856;BME280;5987;53.140;8.904;2023-04-20T01:51:04;102190.66;;;5.65;100.00
11856;BME280;5987;53.140;8.904;2023-04-20T01:54:11;102196.75;;;5.71;100.00
11856;BME280;5987;53.140;8.904;2023-04-20T01:57:15;102205.50;;;5.80;100.00
11856;BME280;5987;53.140;8.904;2023-04-20T02:00:18;102199.44;;;5.81;100.00
11856;BME280;5987;53.140;8.904;2023-04-20T02:03:23;102197.69;;;5.82;100.00
11856;BME280;5987;53.140;8.904;2023-04-20T02:06:27;102197.72;;;5.85;100.00
11856;BME280;5987;53.140;8.904;2023-04-20T02:09:32;102181.19;;;5.80;100.00
11856;BME280;5987;53.140;8.904;2023-04-20T02:12:35;102182.88;;;5.75;100.00
11856;BME280;5987;53.140;8.904;2023-04-20T02:15:39;102194.16;;;5.69;100.00
11856;BME280;5987;53.140;8.904;2023-04-20T02:18:43;102188.06;;;5.65;100.00
11856;BME280;5987;53.140;8.904;2023-04-20T02:21:48;102197.59;;;5.63;100.00
11856;BME280;5987;53.140;8.904;2023-04-20T02:24:53;102188.88;;;5.58;100.00
11856;BME280;5987;53.140;8.904;2023-04-20T02:27:56;102187.13;;;5.54;100.00
11856;BME280;5987;53.140;8.904;2023-04-20T02:31:00;102186.25;;;5.55;100.00
11856;BME280;5987;53.140;8.904;2023-04-20T02:34:04;102190.59;;;5.52;100.00
11856;BME280;5987;53.140;8.904;2023-04-20T02:37:10;102190.53;;;5.45;100.00
11856;BME280;5987;53.140;8.904;2023-04-20T02:40:15;102174.88;;;5.42;100.00
11856;BME280;5987;53.140;8.904;2023-04-20T02:43:19;102169.69;;;5.42;100.00
11856;BME280;5987;53.140;8.904;2023-04-20T02:46:22;102174.00;;;5.39;100.00
11856;BME280;5987;53.140;8.904;2023-04-20T02:49:26;102177.47;;;5.41;100.00
11856;BME280;5987;53.140;8.904;2023-04-20T02:52:30;102172.25;;;5.35;100.00
11856;BME280;5987;53.140;8.904;2023-04-20T02:55:34;102173.13;;;5.37;100.00
11856;BME280;5987;53.140;8.904;2023-04-20T02:58:38;102168.75;;;5.36;100.00
11856;BME280;5987;53.140;8.904;2023-04-20T03:01:42;102158.38;;;5.39;100.00
11856;BME280;5987;53.140;8.904;2023-04-20T03:04:46;102158.38;;;5.39;100.00
11856;BME280;5987;53.140;8.904;2023-04-20T03:07:50;102151.41;;;5.38;100.00
11856;BME280;5987;53.140;8.904;2023-04-20T03:10:54;102165.28;;;5.35;100.00
11856;BME280;5987;53.140;8.904;2023-04-20T03:13:58;102163.53;;;5.36;100.00
11856;BME280;5987;53.140;8.904;2023-04-20T03:17:02;102165.31;;;5.38;100.00
11856;BME280;5987;53.140;8.904;2023-04-20T03:20:07;102161.84;;;5.36;100.00
11856;BME280;5987;53.140;8.904;2023-04-20T03:23:11;102160.06;;;5.33;100.00
11856;BME280;5987;53.140;8.904;2023-04-20T03:26:15;102154.88;;;5.33;100.00
11856;BME280;5987;53.140;8.904;2023-04-20T03:29:19;102154.88;;;5.33;100.00
11856;BME280;5987;53.140;8.904;2023-04-20T03:32:23;102159.16;;;5.30;100.00
11856;BME280;5987;53.140;8.904;2023-04-20T03:35:27;102159.16;;;5.25;100.00
11856;BME280;5987;53.140;8.904;2023-04-20T03:38:31;102153.03;;;5.22;100.00
11856;BME280;5987;53.140;8.904;2023-04-20T03:41:36;102158.22;;;5.19;100.00
11856;BME280;5987;53.140;8.904;2023-04-20T03:44:39;102156.53;;;5.19;100.00
11856;BME280;5987;53.140;8.904;2023-04-20T03:47:43;102153.03;;;5.20;100.00
11856;BME280;5987;53.140;8.904;2023-04-20T03:50:46;102151.34;;;5.24;100.00
11856;BME280;5987;53.140;8.904;2023-04-20T03:53:50;102160.00;;;5.24;100.00
11856;BME280;5987;53.140;8.904;2023-04-20T03:56:55;102158.31;;;5.29;100.00
11856;BME280;5987;53.140;8.904;2023-04-20T03:59:59;102151.31;;;5.22;100.00
11856;BME280;5987;53.140;8.904;2023-04-20T04:03:03;102154.69;;;5.10;100.00
11856;BME280;5987;53.140;8.904;2023-04-20T04:06:09;102161.56;;;4.99;100.00
11856;BME280;5987;53.140;8.904;2023-04-20T04:09:13;102173.63;;;4.89;100.00
11856;BME280;5987;53.140;8.904;2023-04-20T04:12:18;102164.94;;;4.84;100.00
11856;BME280;5987;53.140;8.904;2023-04-20T04:15:21;102157.88;;;4.74;100.00
11856;BME280;5987;53.140;8.904;2023-04-20T04:18:25;102156.16;;;4.71;100.00
11856;BME280;5987;53.140;8.904;2023-04-20T04:21:33;102156.97;;;4.67;100.00
11856;BME280;5987;53.140;8.904;2023-04-20T04:24:37;102166.44;;;4.60;100.00
11856;BME280;5987;53.140;8.904;2023-04-20T04:27:45;102160.31;;;4.55;100.00
11856;BME280;5987;53.140;8.904;2023-04-20T04:30:49;102162.91;;;4.55;100.00
11856;BME280;5987;53.140;8.904;2023-04-20T04:33:53;102171.63;;;4.57;100.00
11856;BME280;5987;53.140;8.904;2023-04-20T04:36:57;102169.06;;;4.63;100.00
11856;BME280;5987;53.140;8.904;2023-04-20T04:40:01;102168.22;;;4.66;100.00
11856;BME280;5987;53.140;8.904;2023-04-20T04:43:09;102172.59;;;4.67;100.00
11856;BME280;5987;53.140;8.904;2023-04-20T04:46:13;102171.78;;;4.74;100.00
11856;BME280;5987;53.140;8.904;2023-04-20T04:49:17;102178.69;;;4.74;100.00
11856;BME280;5987;53.140;8.904;2023-04-20T04:52:22;102167.44;;;4.73;100.00
11856;BME280;5987;53.140;8.904;2023-04-20T04:55:26;102173.53;;;4.77;100.00
11856;BME280;5987;53.140;8.904;2023-04-20T04:58:31;102175.28;;;4.79;100.00
11856;BME280;5987;53.140;8.904;2023-04-20T05:01:34;102173.59;;;4.83;100.00
11856;BME280;5987;53.140;8.904;2023-04-20T05:04:38;102178.66;;;4.71;100.00
11856;BME280;5987;53.140;8.904;2023-04-20T05:07:42;102178.66;;;4.68;100.00
11856;BME280;5987;53.140;8.904;2023-04-20T05:10:45;102171.78;;;4.76;100.00
11856;BME280;5987;53.140;8.904;2023-04-20T05:13:50;102176.06;;;4.69;100.00
11856;BME280;5987;53.140;8.904;2023-04-20T05:16:54;102183.03;;;4.72;100.00
11856;BME280;5987;53.140;8.904;2023-04-20T05:19:57;102185.63;;;4.72;100.00
11856;BME280;5987;53.140;8.904;2023-04-20T05:23:01;102184.75;;;4.71;100.00
11856;BME280;5987;53.140;8.904;2023-04-20T05:26:05;102187.38;;;4.73;100.00
11856;BME280;5987;53.140;8.904;2023-04-20T05:29:10;102189.97;;;4.73;100.00
11856;BME280;5987;53.140;8.904;2023-04-20T05:32:13;102190.00;;;4.74;100.00
11856;BME280;5987;53.140;8.904;2023-04-20T05:35:17;102195.22;;;4.76;100.00
11856;BME280;5987;53.140;8.904;2023-04-20T05:38:20;102193.53;;;4.81;100.00
11856;BME280;5987;53.140;8.904;2023-04-20T05:41:24;102189.16;;;4.77;100.00
11856;BME280;5987;53.140;8.904;2023-04-20T05:44:30;102193.47;;;4.78;100.00
11856;BME280;5987;53.140;8.904;2023-04-20T05:47:35;102191.78;;;4.83;100.00
11856;BME280;5987;53.140;8.904;2023-04-20T05:50:38;102183.16;;;4.87;100.00
11856;BME280;5987;53.140;8.904;2023-04-20T05:53:42;102187.56;;;4.94;100.00
11856;BME280;5987;53.140;8.904;2023-04-20T05:56:46;102186.72;;;4.95;100.00
11856;BME280;5987;53.140;8.904;2023-04-20T05:59:51;102184.09;;;4.95;100.00
11856;BME280;5987;53.140;8.904;2023-04-20T06:02:56;102183.25;;;4.98;100.00
11856;BME280;5987;53.140;8.904;2023-04-20T06:06:00;102191.97;;;5.05;100.00
11856;BME280;5987;53.140;8.904;2023-04-20T06:09:04;102194.56;;;5.05;100.00
11856;BME280;5987;53.140;8.904;2023-04-20T06:12:07;102194.63;;;5.08;100.00
11856;BME280;5987;53.140;8.904;2023-04-20T06:15:12;102191.19;;;5.15;100.00
11856;BME280;5987;53.140;8.904;2023-04-20T06:18:16;102188.59;;;5.12;100.00
11856;BME280;5987;53.140;8.904;2023-04-20T06:21:20;102196.34;;;5.10;100.00
11856;BME280;5987;53.140;8.904;2023-04-20T06:24:25;102198.09;;;5.10;100.00
11856;BME280;5987;53.140;8.904;2023-04-20T06:27:29;102197.28;;;5.15;100.00
11856;BME280;5987;53.140;8.904;2023-04-20T06:30:34;102196.44;;;5.23;100.00
11856;BME280;5987;53.140;8.904;2023-04-20T06:33:37;102188.63;;;5.18;100.00
11856;BME280;5987;53.140;8.904;2023-04-20T06:36:42;102191.22;;;5.17;100.00
11856;BME280;5987;53.140;8.904;2023-04-20T06:39:45;102199.03;;;5.17;100.00
11856;BME280;5987;53.140;8.904;2023-04-20T06:42:49;102201.63;;;5.17;100.00
11856;BME280;5987;53.140;8.904;2023-04-20T06:45:54;102199.13;;;5.29;100.00
11856;BME280;5987;53.140;8.904;2023-04-20T06:48:58;102189.56;;;5.32;100.00
11856;BME280;5987;53.140;8.904;2023-04-20T06:52:01;102198.22;;;5.25;100.00
11856;BME280;5987;53.140;8.904;2023-04-20T06:55:06;102198.28;;;5.33;100.00
11856;BME280;5987;53.140;8.904;2023-04-20T06:58:09;102191.44;;;5.49;100.00
11856;BME280;5987;53.140;8.904;2023-04-20T07:01:15;102181.88;;;5.53;100.00
11856;BME280;5987;53.140;8.904;2023-04-20T07:04:18;102190.63;;;5.61;100.00
11856;BME280;5987;53.140;8.904;2023-04-20T07:07:22;102192.34;;;5.56;100.00
11856;BME280;5987;53.140;8.904;2023-04-20T07:10:26;102190.66;;;5.64;100.00
11856;BME280;5987;53.140;8.904;2023-04-20T07:13:30;102184.63;;;5.77;100.00
11856;BME280;5987;53.140;8.904;2023-04-20T07:16:36;102189.84;;;5.73;100.00
11856;BME280;5987;53.140;8.904;2023-04-20T07:19:40;102189.78;;;5.63;100.00
11856;BME280;5987;53.140;8.904;2023-04-20T07:22:44;102184.63;;;5.76;100.00
11856;BME280;5987;53.140;8.904;2023-04-20T07:25:48;102184.53;;;5.57;100.00
11856;BME280;5987;53.140;8.904;2023-04-20T07:28:52;102188.94;;;5.71;100.00
11856;BME280;5987;53.140;8.904;2023-04-20T07:31:56;102188.94;;;5.71;100.00
11856;BME280;5987;53.140;8.904;2023-04-20T07:35:00;102193.31;;;5.75;100.00
11856;BME280;5987;53.140;8.904;2023-04-20T07:38:04;102186.31;;;5.66;100.00
11856;BME280;5987;53.140;8.904;2023-04-20T07:41:08;102188.94;;;5.69;100.00
11856;BME280;5987;53.140;8.904;2023-04-20T07:44:12;102188.94;;;5.69;100.00
11856;BME280;5987;53.140;8.904;2023-04-20T07:47:17;102194.22;;;5.80;100.00
11856;BME280;5987;53.140;8.904;2023-04-20T07:50:21;102191.56;;;5.74;100.00
11856;BME280;5987;53.140;8.904;2023-04-20T07:53:24;102205.50;;;5.82;100.00
11856;BME280;5987;53.140;8.904;2023-04-20T07:56:28;102202.03;;;5.83;100.00
11856;BME280;5987;53.140;8.904;2023-04-20T07:59:33;102204.66;;;5.89;100.00
11856;BME280;5987;53.140;8.904;2023-04-20T08:02:38;102210.72;;;5.82;100.00
11856;BME280;5987;53.140;8.904;2023-04-20T08:05:42;102209.84;;;5.80;100.00
11856;BME280;5987;53.140;8.904;2023-04-20T08:08:46;102206.41;;;5.84;100.00
11856;BME280;5987;53.140;8.904;2023-04-20T08:11:49;102201.19;;;5.82;100.00
11856;BME280;5987;53.140;8.904;2023-04-20T08:14:53;102204.66;;;5.88;100.00
11856;BME280;5987;53.140;8.904;2023-04-20T08:18:02;102208.19;;;5.96;100.00
11856;BME280;5987;53.140;8.904;2023-04-20T08:21:06;102216.03;;;5.97;100.00
11856;BME280;5987;53.140;8.904;2023-04-20T08:24:10;102218.66;;;5.99;100.00
11856;BME280;5987;53.140;8.904;2023-04-20T08:27:14;102216.06;;;6.00;100.00
11856;BME280;5987;53.140;8.904;2023-04-20T08:30:18;102217.75;;;5.95;100.00
11856;BME280;5987;53.140;8.904;2023-04-20T08:33:23;102210.78;;;5.91;100.00
11856;BME280;5987;53.140;8.904;2023-04-20T08:36:27;102213.50;;;6.11;100.00
11856;BME280;5987;53.140;8.904;2023-04-20T08:39:31;102212.59;;;6.05;100.00
11856;BME280;5987;53.140;8.904;2023-04-20T08:42:35;102203.91;;;6.07;100.00
11856;BME280;5987;53.140;8.904;2023-04-20T08:45:41;102210.94;;;6.22;100.00
11856;BME280;5987;53.140;8.904;2023-04-20T08:48:52;102213.53;;;6.22;100.00
11856;BME280;5987;53.140;8.904;2023-04-20T08:51:57;102208.31;;;6.19;100.00
11856;BME280;5987;53.140;8.904;2023-04-20T08:55:02;102221.38;;;6.22;100.00
11856;BME280;5987;53.140;8.904;2023-04-20T08:58:06;102222.22;;;6.23;100.00
11856;BME280;5987;53.140;8.904;2023-04-20T09:01:11;102216.16;;;6.31;100.00
11856;BME280;5987;53.140;8.904;2023-04-20T09:04:24;102216.16;;;6.31;100.00
11856;BME280;5987;53.140;8.904;2023-04-20T09:07:29;102220.53;;;6.29;100.00
11856;BME280;5987;53.140;8.904;2023-04-20T09:10:40;102218.84;;;6.48;100.00
11856;BME280;5987;53.140;8.904;2023-04-20T09:13:57;102217.13;;;6.60;100.00
11856;BME280;5987;53.140;8.904;2023-04-20T09:17:01;102217.09;;;6.44;100.00
11856;BME280;5987;53.140;8.904;2023-04-20T09:20:09;102224.88;;;6.40;100.00
11856;BME280;5987;53.140;8.904;2023-04-20T09:23:15;102244.03;;;6.42;100.00
11856;BME280;5987;53.140;8.904;2023-04-20T09:26:18;102236.22;;;6.37;100.00
11856;BME280;5987;53.140;8.904;2023-04-20T09:29:23;102243.19;;;6.43;100.00
11856;BME280;5987;53.140;8.904;2023-04-20T09:32:28;102240.53;;;6.32;100.00
11856;BME280;5987;53.140;8.904;2023-04-20T09:35:33;102254.44;;;6.32;100.00
11856;BME280;5987;53.140;8.904;2023-04-20T09:38:37;102251.00;;;6.46;100.00
11856;BME280;5987;53.140;8.904;2023-04-20T09:41:41;102239.72;;;6.55;100.00
11856;BME280;5987;53.140;8.904;2023-04-20T09:44:45;102239.72;;;6.59;100.00
11856;BME280;5987;53.140;8.904;2023-04-20T09:47:51;102235.41;;;6.60;100.00
11856;BME280;5987;53.140;8.904;2023-04-20T09:51:00;102233.66;;;6.60;100.00
11856;BME280;5987;53.140;8.904;2023-04-20T09:54:05;102240.63;;;6.64;100.00
11856;BME280;5987;53.140;8.904;2023-04-20T09:57:11;102239.72;;;6.50;100.00
11856;BME280;5987;53.140;8.904;2023-04-20T10:00:16;102231.03;;;6.65;100.00
11856;BME280;5987;53.140;8.904;2023-04-20T10:03:20;102234.50;;;6.58;100.00
11856;BME280;5987;53.140;8.904;2023-04-20T10:06:27;102231.91;;;6.59;100.00
11856;BME280;5987;53.140;8.904;2023-04-20T10:09:32;102227.56;;;6.70;100.00
11856;BME280;5987;53.140;8.904;2023-04-20T10:12:47;102232.81;;;6.77;100.00
11856;BME280;5987;53.140;8.904;2023-04-20T10:15:51;102236.31;;;6.88;100.00
11856;BME280;5987;53.140;8.904;2023-04-20T10:19:00;102213.69;;;7.18;100.00
11856;BME280;5987;53.140;8.904;2023-04-20T10:22:07;102215.41;;;7.27;100.00
11856;BME280;5987;53.140;8.904;2023-04-20T10:25:15;102216.16;;;7.95;100.00
11856;BME280;5987;53.140;8.904;2023-04-20T10:28:20;102206.44;;;8.25;100.00
11856;BME280;5987;53.140;8.904;2023-04-20T10:31:35;102196.75;;;8.39;100.00
11856;BME280;5987;53.140;8.904;2023-04-20T10:34:39;102195.13;;;8.23;100.00
11856;BME280;5987;53.140;8.904;2023-04-20T10:37:51;102199.38;;;8.46;100.00
11856;BME280;5987;53.140;8.904;2023-04-20T10:40:54;102199.00;;;9.00;100.00
11856;BME280;5987;53.140;8.904;2023-04-20T10:44:06;102206.81;;;9.03;100.00
11856;BME280;5987;53.140;8.904;2023-04-20T10:47:11;102206.25;;;8.61;100.00
11856;BME280;5987;53.140;8.904;2023-04-20T10:50:16;102207.22;;;8.43;100.00
11856;BME280;5987;53.140;8.904;2023-04-20T10:53:22;102193.22;;;8.54;100.00
11856;BME280;5987;53.140;8.904;2023-04-20T10:56:34;102193.00;;;8.84;100.00
11856;BME280;5987;53.140;8.904;2023-04-20T10:59:38;102181.84;;;8.58;100.00
11856;BME280;5987;53.140;8.904;2023-04-20T11:02:47;102184.63;;;8.26;100.00
11856;BME280;5987;53.140;8.904;2023-04-20T11:05:53;102174.75;;;8.73;100.00
11856;BME280;5987;53.140;8.904;2023-04-20T11:08:59;102176.88;;;9.30;100.00
11856;BME280;5987;53.140;8.904;2023-04-20T11:12:05;102170.41;;;8.70;100.00
11856;BME280;5987;53.140;8.904;2023-04-20T11:15:30;102177.34;;;8.74;100.00
11856;BME280;5987;53.140;8.904;2023-04-20T11:18:34;102181.88;;;8.55;100.00
11856;BME280;5987;53.140;8.904;2023-04-20T11:21:40;102180.69;;;8.97;100.00
11856;BME280;5987;53.140;8.904;2023-04-20T11:24:45;102169.03;;;9.30;100.00
11856;BME280;5987;53.140;8.904;2023-04-20T11:27:49;102160.84;;;9.61;100.00
11856;BME280;5987;53.140;8.904;2023-04-20T11:30:53;102154.94;;;10.13;100.00
11856;BME280;5987;53.140;8.904;2023-04-20T11:33:57;102158.44;;;10.12;100.00
11856;BME280;5987;53.140;8.904;2023-04-20T11:37:04;102146.81;;;10.30;100.00
11856;BME280;5987;53.140;8.904;2023-04-20T11:40:10;102147.16;;;10.07;100.00
11856;BME280;5987;53.140;8.904;2023-04-20T11:43:14;102140.91;;;10.15;100.00
11856;BME280;5987;53.140;8.904;2023-04-20T11:46:19;102140.91;;;10.16;100.00
11856;BME280;5987;53.140;8.904;2023-04-20T11:49:24;102140.91;;;10.15;100.00
11856;BME280;5987;53.140;8.904;2023-04-20T11:52:28;102141.16;;;9.98;100.00
11856;BME280;5987;53.140;8.904;2023-04-20T11:55:33;102139.13;;;10.17;100.00
11856;BME280;5987;53.140;8.904;2023-04-20T11:58:36;102131.19;;;10.23;100.00
11856;BME280;5987;53.140;8.904;2023-04-20T12:01:40;102112.19;;;10.64;100.00
11856;BME280;5987;53.140;8.904;2023-04-20T12:04:43;102115.19;;;10.94;100.00
11856;BME280;5987;53.140;8.904;2023-04-20T12:07:47;102115.06;;;10.49;100.00
11856;BME280;5987;53.140;8.904;2023-04-20T12:10:53;102110.19;;;10.80;100.00
11856;BME280;5987;53.140;8.904;2023-04-20T12:13:59;102118.53;;;10.51;100.00
11856;BME280;5987;53.140;8.904;2023-04-20T12:17:04;102106.16;;;11.09;100.00
11856;BME280;5987;53.140;8.904;2023-04-20T12:20:08;102101.84;;;11.05;100.00
11856;BME280;5987;53.140;8.904;2023-04-20T12:23:13;102107.88;;;11.10;100.00
11856;BME280;5987;53.140;8.904;2023-04-20T12:26:18;102115.75;;;10.62;100.00
11856;BME280;5987;53.140;8.904;2023-04-20T12:29:25;102105.59;;;10.92;100.00
11856;BME280;5987;53.140;8.904;2023-04-20T12:32:29;102100.50;;;11.31;100.00
11856;BME280;5987;53.140;8.904;2023-04-20T12:35:32;102114.69;;;11.21;100.00
11856;BME280;5987;53.140;8.904;2023-04-20T12:38:36;102103.75;;;10.98;100.00
11856;BME280;5987;53.140;8.904;2023-04-20T12:41:41;102102.38;;;10.74;100.00
11856;BME280;5987;53.140;8.904;2023-04-20T12:44:45;102097.19;;;11.21;100.00
11856;BME280;5987;53.140;8.904;2023-04-20T12:47:48;102093.94;;;11.08;100.00
11856;BME280;5987;53.140;8.904;2023-04-20T12:50:56;102098.38;;;10.52;100.00
11856;BME280;5987;53.140;8.904;2023-04-20T12:53:59;102089.69;;;10.50;100.00
11856;BME280;5987;53.140;8.904;2023-04-20T12:57:04;102098.34;;;10.55;100.00
11856;BME280;5987;53.140;8.904;2023-04-20T13:00:10;102092.81;;;10.70;100.00
11856;BME280;5987;53.140;8.904;2023-04-20T13:03:16;102088.31;;;10.22;100.00
11856;BME280;5987;53.140;8.904;2023-04-20T13:06:20;102075.13;;;10.81;100.00
11856;BME280;5987;53.140;8.904;2023-04-20T13:09:23;102076.13;;;10.74;100.00
11856;BME280;5987;53.140;8.904;2023-04-20T13:12:29;102077.50;;;10.45;100.00
11856;BME280;5987;53.140;8.904;2023-04-20T13:15:33;102088.16;;;10.33;100.00
11856;BME280;5987;53.140;8.904;2023-04-20T13:18:40;102086.13;;;10.52;100.00
11856;BME280;5987;53.140;8.904;2023-04-20T13:21:44;102084.22;;;10.62;100.00
11856;BME280;5987;53.140;8.904;2023-04-20T13:24:48;102081.88;;;10.43;100.00
11856;BME280;5987;53.140;8.904;2023-04-20T13:27:54;102080.41;;;10.25;100.00
11856;BME280;5987;53.140;8.904;2023-04-20T13:30:58;102093.34;;;10.39;100.00
11856;BME280;5987;53.140;8.904;2023-04-20T13:34:02;102080.00;;;10.52;100.00
11856;BME280;5987;53.140;8.904;2023-04-20T13:37:05;102087.47;;;10.20;100.00
11856;BME280;5987;53.140;8.904;2023-04-20T13:40:10;102097.13;;;10.17;100.00
11856;BME280;5987;53.140;8.904;2023-04-20T13:43:15;102092.53;;;10.34;100.00
11856;BME280;5987;53.140;8.904;2023-04-20T13:46:22;102097.97;;;10.20;100.00
11856;BME280;5987;53.140;8.904;2023-04-20T13:49:26;102097.66;;;10.42;100.00
11856;BME280;5987;53.140;8.904;2023-04-20T13:52:30;102097.28;;;10.07;100.00
11856;BME280;5987;53.140;8.904;2023-04-20T13:55:33;102105.22;;;10.03;100.00
11856;BME280;5987;53.140;8.904;2023-04-20T13:58:38;102094.75;;;10.00;100.00
11856;BME280;5987;53.140;8.904;2023-04-20T14:01:42;102091.56;;;9.76;100.00
11856;BME280;5987;53.140;8.904;2023-04-20T14:04:46;102090.50;;;9.91;100.00
11856;BME280;5987;53.140;8.904;2023-04-20T14:07:49;102090.28;;;10.06;100.00
11856;BME280;5987;53.140;8.904;2023-04-20T14:10:54;102093.53;;;9.60;100.00
11856;BME280;5987;53.140;8.904;2023-04-20T14:13:59;102089.06;;;9.68;100.00
11856;BME280;5987;53.140;8.904;2023-04-20T14:17:02;102090.13;;;9.52;100.00
11856;BME280;5987;53.140;8.904;2023-04-20T14:20:08;102086.69;;;9.48;100.00
11856;BME280;5987;53.140;8.904;2023-04-20T14:23:11;102085.88;;;9.43;100.00
11856;BME280;5987;53.140;8.904;2023-04-20T14:26:15;102090.28;;;9.39;100.00
11856;BME280;5987;53.140;8.904;2023-04-20T14:29:22;102084.28;;;9.28;100.00
11856;BME280;5987;53.140;8.904;2023-04-20T14:32:25;102088.78;;;9.17;100.00
11856;BME280;5987;53.140;8.904;2023-04-20T14:35:29;102084.50;;;9.08;100.00
11856;BME280;5987;53.140;8.904;2023-04-20T14:38:33;102079.41;;;8.94;100.00
11856;BME280;5987;53.140;8.904;2023-04-20T14:41:36;102073.28;;;8.97;100.00
11856;BME280;5987;53.140;8.904;2023-04-20T14:44:41;102069.97;;;8.79;100.00
11856;BME280;5987;53.140;8.904;2023-04-20T14:47:44;102078.88;;;8.60;100.00
11856;BME280;5987;53.140;8.904;2023-04-20T14:50:48;102078.91;;;8.52;100.00
11856;BME280;5987;53.140;8.904;2023-04-20T14:53:51;102081.59;;;8.39;100.00
11856;BME280;5987;53.140;8.904;2023-04-20T14:56:55;102073.88;;;8.22;100.00
11856;BME280;5987;53.140;8.904;2023-04-20T15:00:00;102088.75;;;8.16;100.00
11856;BME280;5987;53.140;8.904;2023-04-20T15:03:05;102077.41;;;8.14;100.00
11856;BME280;5987;53.140;8.904;2023-04-20T15:06:09;102083.53;;;8.11;100.00
11856;BME280;5987;53.140;8.904;2023-04-20T15:09:13;102076.56;;;8.13;100.00
11856;BME280;5987;53.140;8.904;2023-04-20T15:12:17;102074.81;;;8.14;100.00
11856;BME280;5987;53.140;8.904;2023-04-20T15:15:23;102078.34;;;8.08;100.00
11856;BME280;5987;53.140;8.904;2023-04-20T15:18:42;102076.59;;;8.05;100.00
11856;BME280;5987;53.140;8.904;2023-04-20T15:21:46;102067.88;;;8.06;100.00
11856;BME280;5987;53.140;8.904;2023-04-20T15:24:49;102073.97;;;8.08;100.00
11856;BME280;5987;53.140;8.904;2023-04-20T15:27:53;102085.25;;;8.15;100.00
11856;BME280;5987;53.140;8.904;2023-04-20T15:30:58;102076.63;;;8.02;100.00
11856;BME280;5987;53.140;8.904;2023-04-20T15:34:02;102081.81;;;8.05;100.00
11856;BME280;5987;53.140;8.904;2023-04-20T15:37:05;102080.94;;;8.10;100.00
11856;BME280;5987;53.140;8.904;2023-04-20T15:40:10;102082.69;;;8.11;100.00
11856;BME280;5987;53.140;8.904;2023-04-20T15:43:14;102081.00;;;8.00;100.00
11856;BME280;5987;53.140;8.904;2023-04-20T15:46:19;102073.16;;;8.00;100.00
11856;BME280;5987;53.140;8.904;2023-04-20T15:49:25;102061.78;;;8.06;100.00
11856;BME280;5987;53.140;8.904;2023-04-20T15:52:30;102073.97;;;8.05;100.00
11856;BME280;5987;53.140;8.904;2023-04-20T15:55:37;102057.44;;;8.05;100.00
11856;BME280;5987;53.140;8.904;2023-04-20T15:58:40;102062.59;;;8.13;100.00
11856;BME280;5987;53.140;8.904;2023-04-20T16:01:45;102057.41;;;8.08;100.00
11856;BME280;5987;53.140;8.904;2023-04-20T16:04:49;102060.03;;;8.08;100.00
11856;BME280;5987;53.140;8.904;2023-04-20T16:07:53;102046.00;;;8.17;100.00
11856;BME280;5987;53.140;8.904;2023-04-20T16:10:56;102046.91;;;8.13;100.00
11856;BME280;5987;53.140;8.904;2023-04-20T16:14:00;102048.66;;;8.14;100.00